Latest Weather Observations for Wellcamp Airport

IDQ60901

Issued at 7:21 am EST Friday 22 October 2021 (issued every 10 minutes, with the page automatically refreshed every 10 minutes)

About weather observations | Map of Brisbane area stations | Latest observations for Brisbane area | Other Formats
Station Details ID: 541150 Name: WELLCAMP AIRPORT Lat: -27.55 Lon: 151.78 Height: 436.98 m
Data from the previous 72 hours. | See also: Recent months for locations in Queensland
Date/Time
EST
Temp
°C
App
Temp
°C
Dew
Point
°C
Rel
Hum
%
Delta-T
°C
Wind Press
QNH
hPa
Press
MSL
hPa
Rain since
9am
mm
Dir  Spd
km/h
Gust
km/h
Spd
kts
Gust
kts
22/07:00am 18.5 17.8 16.5 88 1.2 ENE 15 19 8 10 1015.9 1014.4 0.4
22/06:30am 17.8 17.3 16.0 89 1.1 ENE 13 20 7 11 1015.7 1014.2 0.4
22/06:22am 17.7 17.2 16.0 90 1.0 ENE 13 19 7 10 1015.7 1014.2 0.4
22/06:00am 17.4 16.8 15.6 89 1.1 ENE 13 17 7 9 1015.5 1014.0 0.4
22/05:30am 16.8 16.4 15.3 91 0.9 E 11 17 6 9 1014.9 1013.4 0.4
22/05:00am 16.6 15.8 15.0 90 0.9 ENE 13 17 7 9 1014.6 1013.1 0.4
22/04:30am 16.2 15.6 14.7 91 0.9 E 11 17 6 9 1014.3 1012.8 0.4
22/04:00am 16.1 15.5 14.6 91 0.9 E 11 15 6 8 1014.1 1012.6 0.4
22/03:30am 16.3 16.1 14.8 91 0.9 E 9 13 5 7 1013.8 1012.3 0.4
22/03:00am 16.4 16.3 14.9 91 0.9 E 9 13 5 7 1013.9 1012.4 0.4
22/02:30am 16.4 15.9 14.9 91 0.9 E 11 15 6 8 1013.9 1012.4 0.4
22/02:00am 16.3 16.1 14.8 91 0.9 E 9 15 5 8 1014.2 1012.7 0.4
22/01:30am 16.2 16.0 14.6 90 0.9 E 9 15 5 8 1014.4 1012.9 0.4
22/01:05am 16.4 15.9 14.8 90 0.9 E 11 17 6 9 1014.6 1013.1 0.4
22/01:00am 16.2 15.6 14.6 90 0.9 E 11 19 6 10 1014.6 1013.1 0.4
22/12:30am 16.5 16.4 14.9 90 0.9 ENE 9 15 5 8 1014.9 1013.4 0.4
22/12:26am 16.6 16.5 15.0 90 0.9 ENE 9 15 5 8 1015.0 1013.5 0.4
22/12:24am 16.5 16.4 14.9 90 0.9 ENE 9 15 5 8 1015.0 1013.5 0.4
22/12:13am 16.6 15.7 14.8 89 1.1 ENE 13 19 7 10 1015.0 1013.5 0.4
22/12:00am 16.8 15.3 15.2 90 0.9 ENE 17 28 9 15 1015.0 1013.5 0.4
 
Date/Time
EST
Temp
°C
App
Temp
°C
Dew
Point
°C
Rel
Hum
%
Delta-T
°C
Wind Press
QNH
hPa
Press
MSL
hPa
Rain since
9am
mm
Dir  Spd
km/h
Gust
km/h
Spd
kts
Gust
kts
21/11:30pm 16.9 15.8 15.2 90 1.0 ENE 15 19 8 10 1015.3 1013.7 0.4
21/11:00pm 16.8 14.8 15.0 89 1.1 ENE 19 28 10 15 1015.0 1013.5 0.4
21/10:30pm 16.9 13.6 14.9 88 1.2 ENE 26 37 14 20 1014.7 1013.2 0.4
21/10:00pm 17.0 14.1 15.2 89 1.1 ENE 24 35 13 19 1014.6 1013.1 0.4
21/09:30pm 16.8 13.9 15.2 90 0.9 E 24 35 13 19 1014.7 1013.2 0.4
21/09:00pm 16.8 11.5 15.2 90 0.9 E 37 48 20 26 1014.0 1012.5 0.4
21/08:30pm 16.9 11.2 15.1 89 1.1 E 39 50 21 27 1013.6 1012.1 0.4
21/08:00pm 17.1 10.9 14.9 87 1.3 E 41 52 22 28 1013.5 1012.0 0.4
21/07:30pm 17.7 11.2 15.0 84 1.6 E 43 57 23 31 1012.8 1011.2 0.4
21/07:00pm 18.2 11.8 15.3 83 1.7 E 43 59 23 32 1012.4 1010.9 0.4
21/06:30pm 18.8 12.5 15.7 82 1.9 E 43 57 23 31 1012.2 1010.7 0.4
21/06:00pm 19.4 13.3 16.1 81 2.0 E 43 56 23 30 1011.7 1010.2 0.4
21/05:30pm 20.2 14.3 15.8 76 2.7 E 41 54 22 29 1011.5 1010.0 0.4
21/05:00pm 21.2 16.2 16.2 73 3.1 E 37 48 20 26 1011.0 1009.4 0.4
21/04:30pm 22.3 17.6 14.2 60 4.8 E 32 41 17 22 1010.7 1009.1 0.4
21/04:00pm 24.1 20.9 14.2 54 6.0 E 24 33 13 18 1010.5 1008.9 0.4
21/03:30pm 23.9 20.9 13.7 52 6.1 ENE 22 32 12 17 1010.3 1008.7 0.2
21/03:00pm 23.6 22.1 16.4 64 4.5 ESE 19 26 10 14 1010.5 1008.9 0.2
21/02:30pm 22.6 21.1 16.2 67 4.0 E 19 28 10 15 1010.5 1008.9 0.2
21/02:00pm 23.2 22.0 13.9 56 5.5 NNE 13 19 7 10 1011.0 1009.4 0.2
21/01:30pm 25.7 22.0 11.5 41 8.2 NE 22 30 12 16 1011.0 1009.4 0.0
21/01:00pm 24.9 21.2 11.5 43 7.7 NE 22 33 12 18 1011.6 1010.1 0.0
21/12:30pm 26.0 22.4 11.7 41 8.3 NNE 22 32 12 17 1012.0 1010.5 0.0
21/12:00pm 24.9 20.7 11.1 42 7.9 NE 24 35 13 19 1012.5 1011.0 0.0
21/11:30am 25.2 21.6 13.1 47 7.2 NNE 24 35 13 19 1013.1 1011.5 0.0
21/11:00am 23.9 19.9 11.9 47 6.9 NNE 24 35 13 19 1013.4 1011.8 0.0
21/10:30am 24.7 21.0 12.6 47 7.1 NNE 24 39 13 21 1013.7 1012.2 0.0
21/10:00am 23.1 20.1 14.9 60 5.0 ENE 24 30 13 16 1014.0 1012.5 0.0
21/09:30am 21.8 19.5 14.7 64 4.3 ENE 20 32 11 17 1014.3 1012.8 0.0
21/09:00am 21.4 18.6 14.3 64 4.2 E 22 33 12 18 1014.3 1012.8 0.2
21/08:30am 20.7 17.9 15.3 71 3.3 E 24 32 13 17 1014.5 1013.0 0.2
21/08:00am 19.3 16.7 14.8 75 2.7 E 22 30 12 16 1014.4 1012.9 0.2
21/07:32am 18.4 15.7 14.5 78 2.3 ENE 22 28 12 15 1014.5 1013.0 0.2
21/07:30am 18.5 15.7 14.2 76 2.5 ENE 22 28 12 15 1014.5 1013.0 0.2
21/07:12am 18.2 16.4 14.5 79 2.2 E 17 26 9 14 1014.5 1013.0 0.2
21/07:00am 18.0 15.8 14.3 79 2.2 E 19 28 10 15 1014.6 1013.1 0.2
21/06:30am 17.0 15.5 14.1 83 1.7 E 15 20 8 11 1014.5 1013.0 0.2
21/06:00am 15.6 15.4 13.6 88 1.1 ENE 7 11 4 6 1014.3 1012.8 0.2
21/05:30am 14.4 13.1 12.6 89 1.0 ENE 11 15 6 8 1013.9 1012.4 0.2
21/05:09am 14.7 12.7 12.7 88 1.1 ENE 15 19 8 10 1013.6 1012.1 0.2
21/05:00am 14.8 12.8 12.8 88 1.1 E 15 19 8 10 1013.6 1012.1 0.2
21/04:30am 14.7 14.5 13.7 94 0.6 NNE 7 11 4 6 1013.7 1012.2 0.2
21/04:08am 14.3 15.1 13.7 96 0.3 ESE 2 6 1 3 1013.7 1012.2 0.2
21/04:00am 14.3 14.6 13.5 95 0.5 NW 4 7 2 4 1013.7 1012.2 0.2
21/03:30am 14.4 14.8 13.6 95 0.5 WNW 4 7 2 4 1013.7 1012.2 0.2
21/03:00am 15.2 15.3 13.9 92 0.7 NE 6 13 3 7 1013.7 1012.2 0.2
21/02:30am 15.9 14.5 14.6 92 0.8 NE 15 19 8 10 1013.9 1012.4 0.2
21/02:00am 14.8 14.7 14.0 95 0.5 WNW 7 7 4 4 1014.0 1012.5 0.2
21/01:30am 16.1 15.1 14.6 91 0.9 ENE 13 20 7 11 1013.9 1012.4 0.2
21/01:00am 16.2 14.5 14.6 90 0.9 E 17 24 9 13 1013.9 1012.4 0.2
21/12:30am 16.3 14.6 14.7 90 0.9 ENE 17 22 9 12 1014.2 1012.7 0.2
21/12:00am 16.8 16.0 15.2 90 0.9 E 13 20 7 11 1014.2 1012.7 0.2
 
Date/Time
EST
Temp
°C
App
Temp
°C
Dew
Point
°C
Rel
Hum
%
Delta-T
°C
Wind Press
QNH
hPa
Press
MSL
hPa
Rain since
9am
mm
Dir  Spd
km/h
Gust
km/h
Spd
kts
Gust
kts
20/11:30pm 17.0 16.6 15.2 89 1.1 E 11 15 6 8 1014.4 1012.9 0.2
20/11:00pm 17.1 16.4 14.2 83 1.7 ENE 11 15 6 8 1014.5 1013.0 0.2
20/10:30pm 18.0 17.9 13.9 77 2.4 ENE 7 13 4 7 1014.6 1013.1 0.2
20/10:00pm 18.3 15.7 13.2 72 2.9 NE 19 24 10 13 1014.6 1013.1 0.2
20/09:30pm 18.3 15.2 14.4 78 2.3 ENE 24 32 13 17 1014.2 1012.7 0.2
20/09:00pm 18.8 15.8 14.9 78 2.3 NE 24 41 13 22 1013.5 1012.0 0.0
20/08:30pm 19.7 17.1 13.2 66 3.8 ENE 19 32 10 17 1013.9 1012.4 0.0
20/08:00pm 20.0 15.5 12.5 62 4.3 ENE 28 35 15 19 1012.8 1011.2 0.0
20/07:30pm 20.3 16.3 10.4 53 5.5 ENE 22 28 12 15 1012.3 1010.8 0.0
20/07:00pm 20.6 17.2 11.2 55 5.3 ENE 20 26 11 14 1012.1 1010.6 0.0
20/06:30pm 21.0 17.2 11.3 54 5.5 ENE 22 28 12 15 1011.6 1010.1 0.0
20/06:00pm 21.8 18.8 12.1 54 5.6 NE 19 26 10 14 1011.3 1009.7 0.0
20/05:30pm 23.1 18.6 12.7 52 6.1 NE 28 35 15 19 1010.9 1009.3 0.0
20/05:00pm 26.4 23.2 11.3 39 8.8 N 19 52 10 28 1010.3 1008.7 0.0
20/04:30pm 27.4 24.2 5.1 24 11.7 NNE 11 17 6 9 1010.1 1008.6 0.0
20/04:00pm 27.8 24.4 4.2 22 12.2 NNW 11 17 6 9 1010.4 1008.8 0.0
20/03:30pm 27.9 25.4 4.9 23 12.0 N 7 17 4 9 1010.7 1009.1 0.0
20/03:00pm 27.0 24.0 4.1 23 11.8 N 9 17 5 9 1010.9 1009.3 0.0
20/02:30pm 27.3 23.2 4.4 23 11.8 NNW 15 22 8 12 1011.1 1009.5 0.0
20/02:00pm 26.7 24.3 5.1 25 11.3 WNW 7 15 4 8 1011.6 1010.1 0.0
20/01:30pm 27.8 25.4 7.1 27 11.2 NNW 9 15 5 8 1012.0 1010.5 0.0
20/01:00pm 27.2 24.4 7.1 28 10.9 NNW 11 17 6 9 1012.3 1010.8 0.0
20/12:30pm 27.3 23.6 6.1 26 11.3 WNW 15 26 8 14 1012.8 1011.2 0.0
20/12:00pm 27.6 24.2 4.0 22 12.1 NW 11 22 6 12 1013.4 1011.8 0.0
20/11:30am 27.2 24.7 6.6 27 11.1 NE 9 19 5 10 1013.8 1012.3 0.0
20/11:00am 26.3 23.5 6.9 29 10.4 N 11 19 6 10 1014.1 1012.6 0.0
20/10:30am 25.6 23.5 8.1 33 9.6 N 9 17 5 9 1014.4 1012.9 0.0
20/10:00am 25.0 23.4 11.6 43 7.7 NNW 11 19 6 10 1014.9 1013.4 0.0
20/09:30am 24.2 23.5 11.9 46 7.1 NNW 7 17 4 9 1015.4 1013.8 0.0
20/09:00am 23.0 22.3 13.2 54 5.8 N 9 15 5 8 1015.6 1014.1 0.0
20/08:30am 22.3 22.9 13.1 56 5.4 NNW 2 9 1 5 1015.8 1014.3 0.0
20/08:00am 20.5 21.5 14.2 67 3.7 NNW 2 6 1 3 1015.9 1014.4 0.0
20/07:30am 18.8 20.4 15.9 83 1.8 S 2 6 1 3 1015.8 1014.3 0.0
20/07:00am 16.7 17.3 15.2 91 0.9 S 6 7 3 4 1015.8 1014.3 0.0
20/06:30am 13.7 13.9 12.9 95 0.4 SSE 4 6 2 3 1015.7 1014.2 0.0
20/06:15am 12.0 11.3 11.4 96 0.3 S 6 9 3 5 1015.7 1014.2 0.0
20/06:00am 11.5 10.7 11.2 98 0.2 SSE 6 7 3 4 1015.4 1013.8 0.0
20/05:30am 10.9 9.8 10.6 98 0.2 SSE 7 9 4 5 1014.8 1013.3 0.0
20/05:13am 10.4 9.1 9.9 97 0.3 S 7 9 4 5 1014.6 1013.1 0.0
20/05:09am 11.0 9.9 10.7 98 0.2 S 7 9 4 5 1014.6 1013.1 0.0
20/05:00am 10.8 9.7 10.5 98 0.2 S 7 9 4 5 1014.5 1013.0 0.0
20/04:30am 10.2 8.8 9.7 97 0.3 WNW 7 9 4 5 1014.3 1012.8 0.0
20/04:00am 11.0 10.1 10.7 98 0.2 WNW 6 7 3 4 1014.2 1012.7 0.0
20/03:33am 11.2 11.0 10.6 96 0.3 SSW 2 4 1 2 1014.1 1012.6 0.0
20/03:30am 11.3 11.0 10.0 92 0.7 SSE 2 6 1 3 1014.1 1012.6 0.0
20/03:00am 13.5 13.4 12.2 92 0.7 SW 4 7 2 4 1014.1 1012.6 0.0
20/02:30am 15.7 15.6 13.9 89 1.0 ENE 7 15 4 8 1014.0 1012.5 0.0
20/02:00am 15.3 15.2 13.8 91 0.9 S 7 11 4 6 1014.3 1012.8 0.0
20/01:30am 15.4 14.9 13.9 91 0.9 SE 9 17 5 9 1014.9 1013.4 0.0
20/01:00am 15.1 14.0 13.1 88 1.1 S 11 17 6 9 1015.4 1013.8 0.0
20/12:30am 12.1 11.3 11.0 93 0.6 W 6 7 3 4 1014.8 1013.3 0.0
20/12:00am 13.6 13.3 11.3 86 1.2 WSW 4 7 2 4 1015.2 1013.6 0.0
 
Date/Time
EST
Temp
°C
App
Temp
°C
Dew
Point
°C
Rel
Hum
%
Delta-T
°C
Wind Press
QNH
hPa
Press
MSL
hPa
Rain since
9am
mm
Dir  Spd
km/h
Gust
km/h
Spd
kts
Gust
kts
19/11:30pm 14.8 14.4 12.3 85 1.4 W 6 11 3 6 1015.4 1013.8 0.0
19/11:00pm 17.8 17.5 12.7 72 2.9 NE 6 13 3 7 1015.7 1014.2 0.0
19/10:30pm 16.8 16.0 11.7 72 2.8 SSE 7 15 4 8 1015.9 1014.4 0.0
19/10:00pm 13.6 12.8 9.8 78 2.0 SSE 4 7 2 4 1015.7 1014.2 0.0
19/09:30pm 12.2 11.8 9.9 86 1.2 WSW 2 4 1 2 1015.6 1014.1 0.0
19/09:00pm 14.7 12.7 10.3 75 2.4 S 11 13 6 7 1015.3 1013.7 0.0
19/08:30pm 14.1 12.7 10.9 81 1.7 S 9 13 5 7 1015.0 1013.5 0.0
19/08:00pm 16.0 14.3 11.2 73 2.6 S 11 13 6 7 1014.9 1013.4 0.0
19/07:30pm 14.3 13.4 11.3 82 1.6 S 7 9 4 5 1014.7 1013.2 0.0
19/07:00pm 17.3 16.1 10.2 63 3.8 S 7 7 4 4 1014.3 1012.8 0.0
19/06:30pm 20.3 19.7 10.4 53 5.5 ENE 4 6 2 3 1014.0 1012.5 0.0
19/06:00pm 21.9 20.8 9.8 46 6.7 SW 6 6 3 3 1013.7 1012.2 0.0
19/05:30pm 23.1 21.4 9.8 43 7.4 SW 9 13 5 7 1013.2 1011.6 0.0
19/05:00pm 24.8 22.3 8.3 35 9.0 SW 11 17 6 9 1013.2 1011.6 0.0
19/04:30pm 24.9 20.8 8.0 34 9.2 SSW 19 24 10 13 1013.2 1011.6 0.0
19/04:00pm 24.2 21.0 8.6 37 8.5 SW 15 22 8 12 1013.1 1011.5 0.0
19/03:30pm 25.4 22.8 9.3 36 9.0 SSW 13 19 7 10 1013.3 1011.7 0.0
19/03:00pm 24.8 22.2 10.7 41 8.0 SW 15 19 8 10 1013.4 1011.8 0.0
19/02:30pm 25.7 23.3 8.7 34 9.4 SSW 11 22 6 12 1013.6 1012.1 0.0
19/02:00pm 25.2 22.6 9.5 37 8.8 S 13 20 7 11 1014.0 1012.5 0.0
19/01:30pm 24.9 23.0 7.5 33 9.4 SSW 7 13 4 7 1014.2 1012.7 0.0
19/01:00pm 24.6 21.8 8.5 36 8.8 S 13 22 7 12 1014.5 1013.0 0.0
19/12:30pm 25.2 22.7 8.2 34 9.3 SSW 11 22 6 12 1015.0 1013.5 0.0
19/12:00pm 24.6 23.5 10.8 42 7.9 S 7 15 4 8 1015.4 1013.8 0.0
19/11:30am 24.0 23.0 12.3 48 6.8 SSW 9 15 5 8 1015.9 1014.4 0.0
19/11:00am 23.2 22.4 10.9 46 7.0 SW 6 15 3 8 1016.3 1014.8 0.0
19/10:30am 22.6 21.8 12.8 54 5.7 S 9 17 5 9 1016.5 1015.0 0.0
19/10:00am 21.6 21.0 13.5 60 4.8 SSW 9 19 5 10 1017.0 1015.5 0.0
19/09:30am 21.0 21.3 14.4 66 3.9 SSW 6 11 3 6 1017.2 1015.7 0.0
19/09:00am 19.6 20.0 14.8 74 2.9 SSE 6 11 3 6 1017.6 1016.1 21.0
19/08:30am 18.2 18.4 14.3 78 2.3 SSE 6 11 3 6 1017.7 1016.2 21.0
19/08:00am 17.0 17.3 13.5 80 2.0 SSE 4 6 2 3 1017.8 1016.3 21.0
19/07:30am 14.6 14.2 12.5 87 1.2 S 6 7 3 4 1017.7 1016.2 21.0

Latest Capital City Observations: Canberra | Sydney | Melbourne | Brisbane | Adelaide | Perth | Hobart | Darwin

Other formats

Comma delimited format used in spreadsheet applications
http://www.bom.gov.au/fwo/IDQ60901/IDQ60901.99435.axf

JavaScript Object Notation format (JSON) in row-major order
http://www.bom.gov.au/fwo/IDQ60901/IDQ60901.99435.json

Data quality

Most of these data are generated automatically and are frequently updated. Quality checks on data are not normally performed. It is possible for incorrect values to appear. Refer to information at About Latest Weather Observations and please check the disclaimer before using these data.